Time;durP1;ratioP1;P1;durP2;ratioP2;P2;SDS_P1;SDS_P2;PMS_P1;PMS_P2;Temp;Humidity;BMP_temperature;BMP_pressure;BME280_temperature;BME280_humidity;BME280_pressure;Samples;Min_cycle;Max_cycle;Signal;HPM_P1;HPM_P2
2022/05/22 00:00:28;;;;;;;3.72;1.60;;;;;;;13.33;82.91;99997.09;12190965;19;20006;-82
2022/05/22 00:04:30;;;;;;;5.63;1.50;;;;;;;13.30;82.94;99987.38;12210918;19;20727;-81
2022/05/22 00:08:31;;;;;;;4.22;1.60;;;;;;;13.29;83.58;99990.38;12215549;19;20010;-83
2022/05/22 00:12:35;;;;;;;5.70;2.60;;;;;;;13.28;83.88;99988.72;12201982;19;20011;-81
2022/05/22 00:16:38;;;;;;;8.05;3.70;;;;;;;13.23;83.79;99982.00;12220636;19;20394;-82
2022/05/22 00:20:39;;;;;;;6.28;2.75;;;;;;;13.21;83.41;99973.16;12222486;19;20501;-82
2022/05/22 00:24:41;;;;;;;8.20;2.30;;;;;;;13.20;83.62;99970.63;12200614;19;20047;-82
2022/05/22 00:28:43;;;;;;;3.53;2.03;;;;;;;13.18;83.67;99978.38;12220325;19;20467;-81
2022/05/22 00:32:44;;;;;;;7.38;1.77;;;;;;;13.13;84.23;99970.84;12221239;19;20009;-82
2022/05/22 00:36:47;;;;;;;;;;;;;;;13.10;85.17;99962.25;12204227;19;20044;-84
2022/05/22 00:40:49;;;;;;;4.05;1.50;;;;;;;13.07;84.41;99963.59;12221990;19;19938;-82
2022/05/22 00:44:50;;;;;;;1.75;1.20;;;;;;;13.03;84.83;99959.72;12222833;19;20092;-82
2022/05/22 00:49:17;;;;;;;7.05;1.25;;;;;;;13.02;85.46;99952.50;12202377;19;20014;-82
2022/05/22 00:53:22;;;;;;;5.07;2.47;;;;;;;13.00;85.25;99960.22;12212667;19;20011;-82
2022/05/22 00:57:33;;;;;;;4.78;1.48;;;;;;;12.99;85.78;99966.84;12189298;19;20587;-81
2022/05/22 01:01:37;;;;;;;4.10;1.70;;;;;;;12.96;85.54;99953.53;12212092;19;20383;-79
2022/05/22 01:05:38;;;;;;;3.25;1.60;;;;;;;12.95;85.98;99962.94;12207199;19;20096;-80
2022/05/22 01:09:40;;;;;;;4.38;1.60;;;;;;;12.92;86.30;99956.00;12194686;19;20039;-80
2022/05/22 01:13:48;;;;;;;3.10;1.35;;;;;;;12.89;86.61;99958.47;12211582;19;20011;-80
2022/05/22 01:17:49;;;;;;;3.67;1.27;;;;;;;12.85;86.54;99955.38;12211795;19;20025;-80
2022/05/22 01:21:54;;;;;;;5.90;1.60;;;;;;;12.80;86.78;99948.97;12189524;19;20476;-80
2022/05/22 01:25:56;;;;;;;3.45;1.27;;;;;;;12.79;86.83;99950.91;12211257;19;20042;-80
2022/05/22 01:30:10;;;;;;;16.13;1.88;;;;;;;12.78;87.28;99947.28;12210447;19;20013;-80
2022/05/22 01:34:13;;;;;;;4.50;1.45;;;;;;;12.79;87.51;99948.13;12187109;19;20018;-80
2022/05/22 01:38:14;;;;;;;6.20;1.48;;;;;;;12.79;87.89;99939.84;12212005;19;20006;-80
2022/05/22 01:42:19;;;;;;;5.75;1.90;;;;;;;12.77;87.74;99945.63;12213918;19;20017;-81
2022/05/22 01:46:21;;;;;;;4.25;1.60;;;;;;;12.72;87.76;99936.44;12187803;19;20024;-81
2022/05/22 01:50:34;;;;;;;;;;;;;;;12.62;88.74;99948.22;12212964;19;20051;-80
2022/05/22 01:54:36;;;;;;;2.08;1.30;;;;;;;12.57;89.61;99942.63;12189776;19;19914;-81
2022/05/22 01:58:39;;;;;;;4.25;1.60;;;;;;;12.57;89.98;99941.81;12209662;19;20025;-81
2022/05/22 02:02:43;;;;;;;4.05;1.50;;;;;;;12.56;89.95;99935.44;12203320;19;20010;-81
2022/05/22 02:11:12;;;;;;;3.42;1.73;;;;;;;12.54;90.73;99935.69;12213999;19;20370;-80
2022/05/22 02:15:18;;;;;;;3.95;1.90;;;;;;;12.54;91.46;99924.63;12207124;19;20007;-81
2022/05/22 02:19:20;;;;;;;4.68;1.70;;;;;;;12.55;91.48;99919.94;12189993;19;20470;-82
2022/05/22 02:23:22;;;;;;;7.38;1.50;;;;;;;12.57;91.49;99915.00;12230885;19;20011;-82
2022/05/22 02:27:24;;;;;;;7.03;1.97;;;;;;;12.54;91.34;99908.06;12222734;19;20015;-82
2022/05/22 02:31:26;;;;;;;4.05;1.23;;;;;;;12.40;91.36;99895.72;12198014;19;20018;-80
2022/05/22 02:35:30;;;;;;;5.07;1.83;;;;;;;12.36;91.44;99896.53;12226426;19;20007;-80
2022/05/22 02:39:41;;;;;;;4.40;2.13;;;;;;;12.23;91.82;99893.09;12216313;19;20502;-81
2022/05/22 02:44:03;;;;;;;5.55;2.05;;;;;;;12.10;92.04;99896.22;12215005;19;20018;-80
2022/05/22 02:48:06;;;;;;;3.97;2.27;;;;;;;12.02;92.74;99905.00;12202021;19;20042;-80
2022/05/22 02:52:07;;;;;;;4.18;1.90;;;;;;;11.98;92.86;99903.81;12192333;19;20011;-81
2022/05/22 02:56:12;;;;;;;5.03;1.80;;;;;;;11.93;93.06;99896.31;12206091;19;20431;-80
2022/05/22 03:00:39;;;;;;;6.13;2.20;;;;;;;11.86;93.49;99895.66;12176617;19;20021;-80
2022/05/22 03:04:41;;;;;;;4.00;1.83;;;;;;;11.80;94.30;99885.59;12201503;19;20011;-80
2022/05/22 03:08:45;;;;;;;4.93;2.10;;;;;;;11.74;94.34;99883.88;12207280;19;20054;-81
2022/05/22 03:12:47;;;;;;;3.17;1.80;;;;;;;11.70;94.54;99874.44;12182274;19;20004;-81
2022/05/22 03:16:54;;;;;;;7.65;2.00;;;;;;;11.64;94.53;99873.53;12202881;19;20082;-81
2022/05/22 03:21:02;;;;;;;7.35;2.20;;;;;;;11.49;94.58;99879.69;12195897;19;20085;-80
2022/05/22 03:25:06;;;;;;;3.23;1.83;;;;;;;11.38;96.38;99872.34;12186065;19;20070;-81
2022/05/22 03:29:08;;;;;;;3.22;1.73;;;;;;;11.33;97.31;99864.84;12197467;19;20018;-80
2022/05/22 03:33:10;;;;;;;4.75;2.33;;;;;;;11.31;97.88;99864.25;12210368;19;20043;-80
2022/05/22 03:37:24;;;;;;;4.32;2.17;;;;;;;11.28;99.16;99872.19;12201788;19;20826;-81
2022/05/22 03:41:35;;;;;;;5.32;2.10;;;;;;;11.28;99.48;99873.03;12224093;19;20007;-80
2022/05/22 03:45:36;;;;;;;3.33;2.13;;;;;;;11.25;99.65;99883.75;12201185;19;20112;-79
2022/05/22 03:49:39;;;;;;;5.23;2.20;;;;;;;11.20;100.00;99878.97;12222940;19;20010;-82
2022/05/22 03:53:41;;;;;;;2.70;1.70;;;;;;;11.20;100.00;99878.97;12224342;19;20243;-82
2022/05/22 03:57:52;;;;;;;4.30;2.05;;;;;;;11.22;100.00;99874.03;12186986;19;20058;-80
2022/05/22 04:01:54;;;;;;;3.42;1.98;;;;;;;11.26;100.00;99872.44;12195732;19;20015;-80
2022/05/22 04:05:56;;;;;;;5.18;1.98;;;;;;;11.27;100.00;99874.09;12201249;19;20113;-79
2022/05/22 04:09:58;;;;;;;5.57;1.87;;;;;;;11.29;100.00;99869.16;12177721;19;20007;-79
2022/05/22 04:14:18;;;;;;;4.45;2.78;;;;;;;11.33;100.00;99862.06;12201503;19;20035;-79
2022/05/22 04:18:29;;;;;;;9.00;2.35;;;;;;;11.38;100.00;99858.53;12181593;19;20011;-79
2022/05/22 04:22:31;;;;;;;5.28;2.22;;;;;;;11.43;100.00;99855.03;12204389;19;20064;-79
2022/05/22 04:26:33;;;;;;;3.75;2.38;;;;;;;11.47;100.00;99853.41;12198440;19;20007;-79
2022/05/22 04:30:37;;;;;;;5.68;2.35;;;;;;;11.51;100.00;99863.72;12178123;19;20368;-80
2022/05/22 04:34:43;;;;;;;5.38;2.22;;;;;;;11.53;100.00;99861.50;12199458;19;20010;-80
2022/05/22 04:38:46;;;;;;;3.50;2.13;;;;;;;11.58;100.00;99853.31;12207425;19;20359;-80
2022/05/22 04:42:48;;;;;;;5.65;2.30;;;;;;;11.66;100.00;99857.56;12186671;19;20074;-80
2022/05/22 04:46:50;;;;;;;6.40;2.40;;;;;;;11.71;100.00;99851.25;12205346;19;20011;-81
2022/05/22 04:50:54;;;;;;;5.13;2.53;;;;;;;11.78;100.00;99840.88;12202978;19;20015;-81
2022/05/22 04:54:55;;;;;;;;;;;;;;;11.82;100.00;99842.03;12170244;19;20030;-80
2022/05/22 04:58:59;;;;;;;6.07;2.28;;;;;;;11.83;100.00;99833.47;12218242;19;19927;-80
2022/05/22 05:03:01;;;;;;;5.05;3.00;;;;;;;11.87;100.00;99842.13;12210525;19;20018;-80
2022/05/22 05:07:05;;;;;;;6.75;2.85;;;;;;;11.94;100.00;99845.50;12189102;19;20118;-81
2022/05/22 05:11:26;;;;;;;4.85;2.80;;;;;;;12.04;100.00;99836.50;12210565;19;20101;-80
2022/05/22 05:15:33;;;;;;;4.45;2.28;;;;;;;12.11;100.00;99833.56;12193091;19;20010;-79
2022/05/22 05:19:55;;;;;;;6.07;2.63;;;;;;;12.21;100.00;99831.72;12208367;19;20015;-80
2022/05/22 05:23:58;;;;;;;9.98;2.30;;;;;;;12.27;100.00;99835.38;12219974;19;20010;-80
2022/05/22 05:28:03;;;;;;;4.75;2.20;;;;;;;12.37;100.00;99840.16;12191637;19;20011;-79
2022/05/22 05:32:05;;;;;;;4.50;2.65;;;;;;;12.45;100.00;99845.22;12209818;19;20018;-80
2022/05/22 05:36:09;;;;;;;5.15;2.40;;;;;;;12.52;100.00;99843.94;12230832;19;20010;-79
2022/05/22 05:40:44;;;;;;;3.92;2.03;;;;;;;12.63;100.00;99850.38;12200208;19;20020;-79
2022/05/22 05:44:51;;;;;;;4.38;2.33;;;;;;;12.73;100.00;99850.47;12216595;19;20019;-79
2022/05/22 05:48:57;;;;;;;3.97;2.38;;;;;;;12.85;100.00;99850.31;12191665;19;20007;-79
2022/05/22 05:53:00;;;;;;;5.68;2.15;;;;;;;13.00;100.00;99849.59;12204643;19;20480;-79
2022/05/22 05:57:28;;;;;;;5.82;2.70;;;;;;;13.15;100.00;99838.63;12191874;19;20031;-79
2022/05/22 06:01:30;;;;;;;7.00;2.10;;;;;;;13.33;100.00;99842.94;12216596;19;20014;-79
2022/05/22 06:05:33;;;;;;;4.50;2.50;;;;;;;13.51;100.00;99835.28;12203217;19;20014;-79
2022/05/22 06:09:44;;;;;;;4.40;2.28;;;;;;;13.72;100.00;99845.34;12181210;19;20602;-79
2022/05/22 06:14:11;;;;;;;5.07;2.70;;;;;;;13.99;98.02;99849.91;12204000;19;20017;-81
2022/05/22 06:18:14;;;;;;;4.40;1.80;;;;;;;14.23;96.31;99848.31;12207345;19;20010;-80
2022/05/22 06:22:16;;;;;;;2.95;1.95;;;;;;;14.47;95.16;99847.81;12189091;19;20259;-81
2022/05/22 06:26:20;;;;;;;4.10;2.25;;;;;;;14.68;94.32;99851.47;12195322;19;20013;-81
2022/05/22 06:30:40;;;;;;;3.45;2.38;;;;;;;14.89;93.32;99855.91;12191936;19;20007;-81
2022/05/22 06:35:11;;;;;;;5.15;2.25;;;;;;;15.11;93.30;99858.41;12206942;19;20556;-82
2022/05/22 06:39:51;;;;;;;5.63;2.17;;;;;;;15.35;91.51;99855.03;12188823;19;20023;-81
2022/05/22 06:43:53;;;;;;;4.75;2.38;;;;;;;15.61;89.33;99847.47;12205211;19;20092;-81
2022/05/22 06:48:21;;;;;;;3.88;2.00;;;;;;;15.88;87.35;99844.34;12206061;19;20090;-80
2022/05/22 06:52:35;;;;;;;5.82;2.17;;;;;;;16.13;86.33;99847.03;12190191;19;20495;-80
2022/05/22 06:57:00;;;;;;;5.40;2.20;;;;;;;16.41;84.06;99848.25;12207819;19;20013;-81
2022/05/22 07:01:09;;;;;;;4.80;2.22;;;;;;;16.68;82.45;99851.69;12182295;19;20059;-80
2022/05/22 07:05:34;;;;;;;3.65;2.13;;;;;;;16.88;80.36;99856.31;12206884;19;20016;-79
2022/05/22 07:09:58;;;;;;;12.77;2.22;;;;;;;17.05;79.00;99851.97;12177945;19;20015;-79
2022/05/22 07:14:23;;;;;;;4.25;2.25;;;;;;;17.30;78.53;99861.22;12202504;19;20687;-80
2022/05/22 07:18:44;;;;;;;6.97;2.20;;;;;;;17.65;77.76;99853.63;12178630;19;20026;-80
2022/05/22 07:22:54;;;;;;;5.30;2.15;;;;;;;17.93;76.90;99847.16;12206565;19;20014;-85
2022/05/22 07:27:09;;;;;;;3.65;1.98;;;;;;;18.24;75.92;99834.81;12200579;19;20023;-81
2022/05/22 07:31:34;;;;;;;6.57;2.60;;;;;;;18.51;72.67;99831.34;12165846;19;20028;-82
2022/05/22 07:36:11;;;;;;;5.50;2.30;;;;;;;18.72;69.76;99815.09;12190749;19;20061;-82
2022/05/22 07:40:31;;;;;;;5.45;2.22;;;;;;;18.93;67.39;99807.25;12142258;19;20511;-83
2022/05/22 07:44:50;;;;;;;4.65;2.28;;;;;;;19.14;66.06;99808.53;12205575;19;20002;-86
2022/05/22 07:54:19;;;;;;;3.67;2.13;;;;;;;19.61;62.94;99800.13;12204972;19;20015;-85
2022/05/22 07:58:40;;;;;;;5.50;1.95;;;;;;;19.85;62.19;99803.56;12188327;19;20015;-85
2022/05/22 08:03:09;;;;;;;5.85;2.30;;;;;;;20.14;60.40;99802.41;12204997;19;20039;-85
2022/05/22 08:07:22;;;;;;;4.50;2.10;;;;;;;20.42;59.26;99791.94;12175079;19;20003;-84
2022/05/22 08:11:34;;;;;;;3.83;1.85;;;;;;;20.55;58.72;99790.25;12203493;19;20010;-85
2022/05/22 08:15:42;;;;;;;8.95;2.10;;;;;;;20.71;59.17;99777.56;12199736;19;20011;-85
2022/05/22 08:20:20;;;;;;;5.43;2.03;;;;;;;20.94;58.08;99776.41;12202349;19;20039;-85
2022/05/22 08:24:38;;;;;;;4.72;2.20;;;;;;;21.02;56.74;99774.78;12186473;19;20027;-84
2022/05/22 08:28:42;;;;;;;3.90;1.83;;;;;;;21.08;56.98;99764.28;12209706;19;20046;-84
2022/05/22 08:32:46;;;;;;;3.00;2.00;;;;;;;21.15;56.49;99759.88;12218104;19;20014;-84
2022/05/22 08:36:50;;;;;;;6.93;2.00;;;;;;;21.35;54.22;99755.66;12192332;19;20163;-84
2022/05/22 08:40:57;;;;;;;4.38;1.58;;;;;;;21.61;53.63;99757.78;12219783;19;20097;-85
2022/05/22 08:45:16;;;;;;;5.70;2.20;;;;;;;21.70;52.96;99749.41;12215404;19;20003;-81
2022/05/22 08:49:36;;;;;;;4.95;2.03;;;;;;;21.71;52.36;99746.25;12225931;19;20514;-84
2022/05/22 08:53:46;;;;;;;3.63;1.63;;;;;;;21.75;51.50;99738.84;12259258;19;20010;-86
2022/05/22 09:02:52;;;;;;;3.53;1.63;;;;;;;22.17;49.06;99727.22;12208278;19;20007;-82
2022/05/22 09:07:04;;;;;;;2.85;1.67;;;;;;;22.19;48.19;99739.78;12190502;19;20472;-81
2022/05/22 09:11:40;;;;;;;5.27;1.90;;;;;;;21.82;48.88;99733.59;12213912;19;20014;-81
2022/05/22 09:15:47;;;;;;;3.83;1.70;;;;;;;21.91;50.39;99729.97;12188370;19;20089;-81
2022/05/22 09:20:09;;;;;;;6.30;1.70;;;;;;;21.69;50.21;99728.13;12205699;19;20003;-81
2022/05/22 09:24:26;;;;;;;7.03;2.00;;;;;;;21.81;49.56;99719.91;12212885;19;20006;-81
2022/05/22 09:29:03;;;;;;;6.75;2.47;;;;;;;22.08;47.76;99713.16;12197536;19;20396;-80
2022/05/22 09:33:30;;;;;;;4.63;1.88;;;;;;;21.82;47.90;99716.75;12214158;19;20764;-80
2022/05/22 09:37:59;;;;;;;4.97;2.30;;;;;;;21.41;49.06;99707.91;12190958;19;20014;-80
2022/05/22 09:42:18;;;;;;;5.25;1.60;;;;;;;21.33;49.82;99709.50;12210562;19;20031;-79
2022/05/22 09:46:54;;;;;;;4.18;1.33;;;;;;;21.52;49.38;99701.69;12195981;19;20420;-80
2022/05/22 09:51:12;;;;;;;4.80;1.50;;;;;;;21.80;51.24;99702.25;12214491;19;20038;-81
2022/05/22 09:55:51;;;;;;;5.53;1.80;;;;;;;22.37;46.71;99694.84;12188992;19;20525;-81
2022/05/22 10:00:16;;;;;;;3.60;1.40;;;;;;;22.68;46.07;99698.28;12213919;19;20014;-80
2022/05/22 10:05:07;;;;;;;3.38;1.38;;;;;;;23.25;44.80;99687.88;12187972;19;20418;-84
2022/05/22 10:09:34;;;;;;;3.90;1.33;;;;;;;23.60;41.94;99669.66;12206777;19;20010;-82
2022/05/22 10:14:16;;;;;;;3.30;1.20;;;;;;;23.93;41.77;99674.59;12189264;19;20023;-81
2022/05/22 10:18:36;;;;;;;3.60;1.15;;;;;;;24.18;41.38;99672.72;12209435;19;20019;-87
2022/05/22 10:22:57;;;;;;;4.28;1.63;;;;;;;24.19;40.97;99673.56;12188135;19;20094;-82
2022/05/22 10:27:23;;;;;;;2.08;1.15;;;;;;;24.14;40.41;99670.97;12212569;19;20075;-81
2022/05/22 10:31:54;;;;;;;4.97;1.30;;;;;;;24.17;39.54;99675.91;12188114;19;20400;-84
2022/05/22 10:36:04;;;;;;;;;;;;;;;24.43;38.77;99676.53;12215188;19;20017;-83
2022/05/22 10:40:13;;;;;;;3.72;1.48;;;;;;;24.65;38.44;99666.84;12193223;19;19915;-85
2022/05/22 10:44:21;;;;;;;3.75;1.50;;;;;;;24.90;38.89;99662.09;12215569;19;20011;-86
2022/05/22 10:48:24;;;;;;;6.72;1.10;;;;;;;25.24;38.04;99660.03;12207198;19;20066;-84
2022/05/22 10:52:31;;;;;;;2.53;1.30;;;;;;;25.28;37.56;99648.88;12184049;19;20629;-83
2022/05/22 10:56:36;;;;;;;2.28;0.98;;;;;;;25.29;37.31;99657.00;12205256;19;20010;-84
2022/05/22 11:00:38;;;;;;;2.72;1.13;;;;;;;25.06;37.97;99650.13;12191013;19;20014;-80
2022/05/22 11:04:43;;;;;;;4.72;1.83;;;;;;;25.12;38.15;99640.28;12214731;19;20389;-82
2022/05/22 11:08:51;;;;;;;5.28;1.35;;;;;;;25.14;37.05;99632.31;12206035;19;20017;-84
2022/05/22 11:13:01;;;;;;;6.00;1.30;;;;;;;25.10;36.21;99620.06;12187810;19;20007;-82
2022/05/22 11:17:29;;;;;;;2.22;1.27;;;;;;;25.43;35.90;99622.78;12212547;19;20066;-83
2022/05/22 11:21:46;;;;;;;4.78;1.13;;;;;;;25.57;36.34;99616.78;12190578;19;20007;-82
2022/05/22 11:25:51;;;;;;;2.85;1.20;;;;;;;25.69;36.38;99606.28;12212026;19;20014;-84
2022/05/22 11:30:05;;;;;;;2.25;1.10;;;;;;;25.49;34.57;99603.63;12205251;19;20074;-83
2022/05/22 11:34:22;;;;;;;3.97;1.73;;;;;;;25.29;34.15;99602.59;12192918;19;20445;-84
2022/05/22 11:38:39;;;;;;;2.40;1.10;;;;;;;25.36;34.90;99589.53;12209908;19;20006;-83
2022/05/22 11:42:41;;;;;;;3.47;1.02;;;;;;;25.64;34.53;99597.22;12186587;19;20035;-84
2022/05/22 11:47:02;;;;;;;3.95;1.30;;;;;;;25.72;34.25;99596.28;12207461;19;20043;-84
2022/05/22 11:51:37;;;;;;;3.67;1.30;;;;;;;26.02;33.86;99581.88;12200313;19;20011;-81
2022/05/22 11:56:06;;;;;;;3.72;1.20;;;;;;;26.50;32.69;99580.00;12178324;19;20073;-83
2022/05/22 12:00:24;;;;;;;2.92;1.30;;;;;;;26.86;31.55;99573.28;12205994;19;20007;-85
2022/05/22 12:04:55;;;;;;;7.05;3.30;;;;;;;27.34;31.20;99554.28;12182931;19;20014;-84
2022/05/22 12:09:39;;;;;;;3.03;1.13;;;;;;;27.30;31.94;99541.22;12200430;19;20640;-82
2022/05/22 12:13:54;;;;;;;3.35;1.48;;;;;;;28.20;31.62;99544.81;12185621;19;20023;-87
2022/05/22 12:17:56;;;;;;;4.15;1.38;;;;;;;29.08;30.26;99541.94;12225085;19;20043;-85
2022/05/22 12:22:22;;;;;;;3.95;1.92;;;;;;;29.60;29.05;99533.78;12194853;19;20007;-85
2022/05/22 12:26:30;;;;;;;3.42;1.70;;;;;;;29.85;29.18;99530.47;12205631;19;20015;-83
2022/05/22 12:30:38;;;;;;;3.20;1.60;;;;;;;30.27;28.13;99535.03;12183275;19;20003;-81
2022/05/22 12:34:47;;;;;;;6.88;2.13;;;;;;;30.58;27.43;99528.88;12205473;19;20074;-83
2022/05/22 12:39:10;;;;;;;4.72;1.80;;;;;;;31.26;26.85;99505.81;12207040;19;20025;-82
2022/05/22 12:43:16;;;;;;;3.45;1.70;;;;;;;32.23;26.80;99493.66;12193645;19;20468;-85
2022/05/22 12:47:19;;;;;;;4.97;1.77;;;;;;;32.88;26.08;99493.72;12216549;19;20037;-84
2022/05/22 12:51:32;;;;;;;3.78;1.70;;;;;;;33.47;25.16;99496.09;12219334;19;20043;-85
2022/05/22 12:55:35;;;;;;;3.55;1.70;;;;;;;33.84;23.88;99484.13;12181900;19;20505;-85
2022/05/22 12:59:37;;;;;;;5.22;1.75;;;;;;;34.10;23.22;99488.53;12210444;19;20393;-85
2022/05/22 13:03:41;;;;;;;6.07;1.80;;;;;;;33.92;23.22;99484.91;12197190;19;20015;-84
2022/05/22 13:07:43;;;;;;;3.20;1.30;;;;;;;33.27;24.10;99470.84;12232092;19;20392;-84
2022/05/22 13:11:55;;;;;;;3.75;1.67;;;;;;;33.17;24.52;99466.00;12223900;19;20015;-87
2022/05/22 13:16:08;;;;;;;4.55;1.83;;;;;;;33.71;23.91;99466.66;12203314;19;20015;-85
2022/05/22 13:20:36;;;;;;;6.68;5.05;;;;;;;33.71;23.99;99460.94;12221445;19;20018;-84
2022/05/22 13:24:49;;;;;;;6.72;3.10;;;;;;;33.39;23.67;99448.78;12199821;19;20014;-86
2022/05/22 13:29:05;;;;;;;4.55;1.90;;;;;;;33.61;22.50;99447.50;12226914;19;20023;-88
2022/05/22 13:33:08;;;;;;;3.33;1.90;;;;;;;33.58;23.18;99446.31;12227956;19;20007;-86
2022/05/22 13:37:10;;;;;;;4.40;1.70;;;;;;;33.95;22.66;99435.50;12200122;19;20030;-84
2022/05/22 13:41:32;;;;;;;7.45;6.68;;;;;;;34.47;22.00;99433.50;12223774;19;20019;-86
2022/05/22 13:46:10;;;;;;;4.28;1.85;;;;;;;34.35;21.55;99434.00;12198108;19;20103;-87
2022/05/22 13:55:00;;;;;;;4.20;2.20;;;;;;;35.34;22.44;99428.59;12196157;19;20006;-84
2022/05/22 13:59:02;;;;;;;4.55;1.77;;;;;;;36.34;20.66;99417.00;12197712;19;20028;-86
2022/05/22 14:03:08;;;;;;;10.55;1.80;;;;;;;36.89;20.69;99427.13;12201378;19;20373;-84
2022/05/22 14:07:21;;;;;;;2.85;1.52;;;;;;;37.33;20.11;99416.44;12186381;19;20018;-83
2022/05/22 14:11:27;;;;;;;2.92;1.48;;;;;;;37.87;19.57;99416.13;12216060;19;20010;-86
2022/05/22 14:15:34;;;;;;;4.25;1.60;;;;;;;38.46;18.30;99403.66;12195498;19;20014;-85
2022/05/22 14:19:46;;;;;;;3.22;1.63;;;;;;;37.21;19.04;99425.72;12217325;19;20007;-85
2022/05/22 14:28:14;;;;;;;14.57;9.40;;;;;;;36.72;19.66;99404.06;12187714;19;20003;-85
2022/05/22 14:32:20;;;;;;;2.90;1.58;;;;;;;35.78;20.88;99394.47;12211972;19;20014;-85
2022/05/22 14:43:03;;;;;;;3.28;1.60;;;;;;;33.19;23.20;99406.44;11900161;19;2004568;-84
2022/05/22 15:03:18;;;;;;;3.08;1.77;;;;;;;30.14;26.51;99393.22;12204685;19;20334;-83
2022/05/22 15:07:30;;;;;;;2.85;1.48;;;;;;;30.14;26.15;99404.56;12181799;19;20010;-83
2022/05/22 15:11:40;;;;;;;2.85;1.70;;;;;;;30.41;26.92;99391.03;12207361;19;20391;-84
2022/05/22 15:15:45;;;;;;;2.67;1.58;;;;;;;30.58;25.98;99395.22;12187507;19;20388;-83
2022/05/22 15:20:27;;;;;;;3.80;1.40;;;;;;;30.98;25.88;99389.81;12201200;19;20006;-83
2022/05/22 15:29:17;;;;;;;4.78;2.08;;;;;;;29.85;27.40;99383.59;12204813;19;20014;-83
2022/05/22 15:33:23;;;;;;;1.30;1.10;;;;;;;29.27;28.47;99384.13;12206281;19;20082;-83
2022/05/22 15:37:43;;;;;;;3.47;1.40;;;;;;;28.77;29.50;99378.56;12186372;19;20022;-83
2022/05/22 15:41:46;;;;;;;3.95;1.50;;;;;;;28.36;29.09;99369.81;12200529;19;20011;-83
2022/05/22 15:46:11;;;;;;;3.17;1.42;;;;;;;28.07;29.17;99364.88;12178931;19;20027;-83
2022/05/22 15:54:50;;;;;;;3.13;1.75;;;;;;;27.55;30.30;99363.53;12184929;19;20027;-83
2022/05/22 15:58:57;;;;;;;4.53;1.70;;;;;;;27.32;30.30;99354.97;12177963;19;20019;-83
2022/05/22 16:03:01;;;;;;;3.80;1.67;;;;;;;27.15;30.63;99345.75;12225612;19;20014;-83
2022/05/22 16:07:14;;;;;;;2.72;1.40;;;;;;;27.12;31.67;99340.81;12185117;19;20010;-83
2022/05/22 16:11:17;;;;;;;2.80;1.60;;;;;;;26.95;32.18;99335.59;12203936;19;20350;-83
2022/05/22 16:15:21;;;;;;;3.00;1.45;;;;;;;26.68;33.45;99329.78;12212305;19;20042;-82
2022/05/22 16:19:32;;;;;;;5.22;2.47;;;;;;;26.24;33.44;99327.13;12179611;19;20487;-83
2022/05/22 16:23:34;;;;;;;2.75;1.30;;;;;;;26.09;34.30;99323.13;12213288;19;20011;-82
2022/05/22 16:27:36;;;;;;;3.00;1.55;;;;;;;25.83;34.93;99315.22;12179378;19;20006;-82
2022/05/22 16:31:38;;;;;;;4.30;1.37;;;;;;;25.75;34.89;99316.19;12201017;19;20010;-83
2022/05/22 16:35:40;;;;;;;2.25;1.40;;;;;;;25.60;35.46;99300.06;12209590;19;20063;-83
2022/05/22 16:39:43;;;;;;;2.13;1.30;;;;;;;25.45;36.98;99296.88;12176760;19;20489;-83
2022/05/22 16:43:44;;;;;;;4.60;1.55;;;;;;;25.30;37.20;99286.38;12201939;19;20013;-82
2022/05/22 16:56:30;;;;;;;1.70;1.10;;;;;;;24.63;39.62;99290.88;12210510;19;20024;-81
2022/05/22 17:00:32;;;;;;;3.75;1.65;;;;;;;24.40;40.45;99276.50;12199674;19;19998;-82
2022/05/22 17:04:36;;;;;;;5.25;1.65;;;;;;;24.17;40.67;99273.34;12213659;19;20672;-82
2022/05/22 17:08:44;;;;;;;6.13;1.87;;;;;;;23.97;41.63;99272.31;12226162;19;20924;-83
2022/05/22 17:12:46;;;;;;;3.17;1.65;;;;;;;23.72;42.92;99272.31;12197757;19;20066;-82
2022/05/22 17:16:50;;;;;;;4.60;1.87;;;;;;;23.50;42.91;99272.72;12214459;19;20010;-81
2022/05/22 17:20:52;;;;;;;6.00;1.70;;;;;;;23.34;43.10;99281.00;12204055;19;20007;-81
2022/05/22 17:24:59;;;;;;;5.07;1.63;;;;;;;23.19;43.57;99263.63;12187333;19;20014;-82
2022/05/22 17:29:03;;;;;;;2.90;1.60;;;;;;;23.06;43.16;99263.97;12216285;19;20082;-82
2022/05/22 17:33:05;;;;;;;7.53;1.60;;;;;;;22.94;43.20;99274.00;12217185;19;20011;-83
2022/05/22 17:37:17;;;;;;;3.15;1.60;;;;;;;22.87;44.28;99262.44;12196200;19;20016;-81
2022/05/22 17:41:19;;;;;;;3.83;2.00;;;;;;;22.70;44.28;99241.00;12217544;19;20011;-80
2022/05/22 17:45:22;;;;;;;6.22;2.30;;;;;;;22.48;44.35;99244.97;12211471;19;20038;-82
2022/05/22 17:49:24;;;;;;;4.27;2.20;;;;;;;22.28;44.16;99252.25;12193615;19;20022;-81
2022/05/22 17:53:26;;;;;;;5.57;2.53;;;;;;;22.13;44.18;99243.56;12200237;19;20038;-81
2022/05/22 17:57:30;;;;;;;5.25;1.88;;;;;;;21.94;44.50;99238.41;12201278;19;20795;-84
2022/05/22 18:01:31;;;;;;;3.25;1.70;;;;;;;21.81;45.42;99234.69;12207097;19;20365;-84
2022/05/22 18:05:36;;;;;;;3.83;1.67;;;;;;;21.66;47.24;99227.69;12210813;19;20018;-83
2022/05/22 18:09:45;;;;;;;5.18;1.90;;;;;;;21.47;47.84;99222.47;12183802;19;20074;-83
2022/05/22 18:23:55;;;;;;;;;;;;;;;;;;;;;
2022/05/22 18:44:07;;;;;;;3.55;1.90;;;;;;;20.31;48.43;99200.13;11646040;19;11873805;-85
2022/05/22 18:48:29;;;;;;;4.90;2.00;;;;;;;20.21;49.33;99204.91;12263674;19;20006;-84
2022/05/22 18:52:30;;;;;;;5.47;2.03;;;;;;;20.13;50.06;99202.94;12235363;19;20105;-84
2022/05/22 18:56:35;;;;;;;6.50;2.00;;;;;;;20.00;50.95;99196.34;12258740;19;20014;-83
2022/05/22 19:00:37;;;;;;;3.75;1.75;;;;;;;19.84;51.55;99205.53;12232424;19;20384;-83
2022/05/22 19:04:41;;;;;;;2.88;1.77;;;;;;;19.67;51.93;99209.94;12255793;19;20014;-84
2022/05/22 19:08:43;;;;;;;2.60;1.67;;;;;;;19.47;52.92;99205.75;12263833;19;20006;-82
2022/05/22 19:12:46;;;;;;;3.42;1.75;;;;;;;19.28;53.08;99211.59;12237368;19;20070;-83
2022/05/22 19:37:42;;;;;;;2.93;1.63;;;;;;;18.26;55.78;99225.34;12262038;19;20000;-82
2022/05/22 19:48:29;;;;;;;;;;;;;;;18.18;56.24;99240.06;12184740;19;20506;-81
2022/05/22 20:46:59;;;;;;;9.55;4.57;;;;;;;18.13;56.91;99145.38;12035440;19;4257244;-83
2022/05/22 20:51:26;;;;;;;5.60;2.35;;;;;;;18.18;57.15;99161.97;12260302;19;20775;-81
2022/05/22 21:00:28;;;;;;;4.57;2.17;;;;;;;18.22;57.45;99177.75;12290462;19;19996;-82
2022/05/22 21:10:11;;;;;;;5.65;2.13;;;;;;;18.13;57.06;99201.94;12267133;19;20037;-82
2022/05/22 21:15:12;;;;;;;5.40;2.10;;;;;;;18.10;57.46;99205.38;12252289;19;20009;-83
2022/05/22 21:20:01;;;;;;;6.18;2.00;;;;;;;17.94;58.21;99204.09;12260420;19;20001;-86
2022/05/22 22:06:41;;;;;;;5.07;2.60;;;;;;;16.37;67.99;99140.06;365040;19;70303;-82
2022/05/22 22:38:05;;;;;;;4.20;1.90;;;;;;;16.90;67.54;99094.34;11915389;19;6670674;-83
2022/05/22 22:42:07;;;;;;;3.92;1.90;;;;;;;16.86;68.14;99094.09;12263429;19;20009;-83
2022/05/22 22:46:11;;;;;;;4.25;1.83;;;;;;;16.76;69.09;99083.19;12241330;19;20889;-84
2022/05/22 22:50:12;;;;;;;2.58;1.67;;;;;;;16.71;68.95;99092.41;12266486;19;20035;-82
2022/05/22 22:58:34;;;;;;;5.20;2.10;;;;;;;16.61;69.88;99089.84;12237106;19;20026;-82
2022/05/22 23:02:37;;;;;;;7.07;2.47;;;;;;;16.51;70.73;99085.31;12259059;19;20010;-83
2022/05/22 23:06:39;;;;;;;;;;;;;;;16.48;71.35;99080.34;12239320;19;20017;-80
2022/05/22 23:10:43;;;;;;;3.53;1.67;;;;;;;16.49;70.64;99073.66;12256663;19;19919;-82
2022/05/22 23:14:44;;;;;;;5.18;1.50;;;;;;;16.48;71.69;99063.66;12257885;19;20014;-81
2022/05/22 23:18:47;;;;;;;2.83;1.73;;;;;;;16.46;71.99;99056.75;12234962;19;20574;-82
2022/05/22 23:22:48;;;;;;;2.72;1.83;;;;;;;16.40;72.33;99050.47;12212349;19;20010;-82
2022/05/22 23:26:50;;;;;;;3.00;1.60;;;;;;;16.45;72.00;99035.63;12214220;19;20010;-85
2022/05/22 23:30:53;;;;;;;4.70;2.08;;;;;;;16.48;71.89;99021.09;12190221;19;20015;-81
2022/05/22 23:34:54;;;;;;;5.15;1.60;;;;;;;16.58;71.05;99026.47;12212993;19;20226;-83
2022/05/22 23:43:17;;;;;;;2.95;1.67;;;;;;;16.73;70.61;98995.56;12183374;19;20046;-83
2022/05/22 23:47:19;;;;;;;3.20;1.75;;;;;;;16.83;70.04;98992.59;12213869;19;20003;-84